createdAt,value
2023-01-23T00:00:57.449Z,6.60
2023-01-23T00:01:57.488Z,6.60
2023-01-23T00:02:57.422Z,5.30
2023-01-23T00:03:57.501Z,4.90
2023-01-23T00:04:57.391Z,5.10
2023-01-23T00:05:57.412Z,5.20
2023-01-23T00:06:58.114Z,4.30
2023-01-23T00:07:57.419Z,5.40
2023-01-23T00:08:57.398Z,4.40
2023-01-23T00:09:57.368Z,4.80
2023-01-23T00:10:57.348Z,4.40
2023-01-23T00:11:57.330Z,5.20
2023-01-23T00:12:57.299Z,5.10
2023-01-23T00:13:57.336Z,5.40
2023-01-23T00:14:57.290Z,5.50
2023-01-23T00:15:57.342Z,5.10
2023-01-23T00:16:57.271Z,6.00
2023-01-23T00:17:57.268Z,5.20
2023-01-23T00:18:57.231Z,4.90
2023-01-23T00:19:57.300Z,5.30
2023-01-23T00:20:57.223Z,6.10
2023-01-23T00:21:57.225Z,6.20
2023-01-23T00:22:57.188Z,5.40
2023-01-23T00:23:57.230Z,6.00
2023-01-23T00:24:57.168Z,5.40
2023-01-23T00:25:57.176Z,5.50
2023-01-23T00:26:57.261Z,5.80
2023-01-23T00:27:57.164Z,5.30
2023-01-23T00:28:57.135Z,5.10
2023-01-23T00:29:57.157Z,6.10
2023-01-23T00:30:57.229Z,6.40
2023-01-23T00:31:57.140Z,6.60
2023-01-23T00:32:57.086Z,6.30
2023-01-23T00:33:57.128Z,6.00
2023-01-23T00:34:57.046Z,5.30
2023-01-23T00:35:57.089Z,5.10
2023-01-23T00:36:57.058Z,6.70
2023-01-23T00:37:57.105Z,6.70
2023-01-23T00:38:57.007Z,6.30
2023-01-23T00:39:57.029Z,5.40
2023-01-23T00:40:56.997Z,6.30
2023-01-23T00:41:57.024Z,6.10
2023-01-23T00:42:56.989Z,6.50
2023-01-23T00:43:56.979Z,5.80
2023-01-23T00:44:56.936Z,6.00
2023-01-23T00:45:56.998Z,5.90
2023-01-23T00:46:56.935Z,5.30
2023-01-23T00:47:56.959Z,7.20
2023-01-23T00:48:56.924Z,5.60
2023-01-23T00:49:56.935Z,5.70
2023-01-23T00:50:56.884Z,5.70
2023-01-23T00:51:56.900Z,6.40
2023-01-23T00:52:56.907Z,6.00
2023-01-23T00:53:56.881Z,5.90
2023-01-23T00:54:56.835Z,6.40
2023-01-23T00:55:56.834Z,6.90
2023-01-23T00:56:56.819Z,6.30
2023-01-23T00:57:56.823Z,6.40
2023-01-23T00:58:56.802Z,6.10
2023-01-23T00:59:56.835Z,6.10
2023-01-23T01:00:56.753Z,5.40
2023-01-23T01:01:56.783Z,6.90
2023-01-23T01:02:56.766Z,7.40
2023-01-23T01:03:56.769Z,6.20
2023-01-23T01:04:56.741Z,7.50
2023-01-23T01:05:56.728Z,6.50
2023-01-23T01:06:56.695Z,6.00
2023-01-23T01:07:57.083Z,8.90
2023-01-23T01:08:56.995Z,8.10
2023-01-23T01:09:56.689Z,6.40
2023-01-23T01:10:56.645Z,6.80
2023-01-23T01:11:56.660Z,6.60
2023-01-23T01:12:56.644Z,6.80
2023-01-23T01:13:56.660Z,7.20
2023-01-23T01:14:56.611Z,8.20
2023-01-23T01:15:56.713Z,8.00
2023-01-23T01:16:56.592Z,7.60
2023-01-23T01:17:56.601Z,7.80
2023-01-23T01:18:56.563Z,9.10
2023-01-23T01:19:56.571Z,8.10
2023-01-23T01:20:56.541Z,8.60
2023-01-23T01:21:56.571Z,8.80
2023-01-23T01:22:56.510Z,7.70
2023-01-23T01:23:56.529Z,8.40
2023-01-23T01:24:56.480Z,8.10
2023-01-23T01:25:56.586Z,8.10
2023-01-23T01:26:56.479Z,8.10
2023-01-23T01:27:56.481Z,8.30
2023-01-23T01:28:56.452Z,8.10
2023-01-23T01:29:56.456Z,8.10
2023-01-23T01:30:56.488Z,8.50
2023-01-23T01:31:56.505Z,7.30
2023-01-23T01:32:56.402Z,7.40
2023-01-23T01:33:56.446Z,7.20
2023-01-23T01:34:56.370Z,7.80
2023-01-23T01:35:56.389Z,7.20
2023-01-23T01:36:56.349Z,7.20
2023-01-23T01:37:56.387Z,6.20
2023-01-23T01:38:56.336Z,6.40
2023-01-23T01:39:56.351Z,6.80
2023-01-23T01:40:56.310Z,6.50
2023-01-23T01:41:56.339Z,6.60
2023-01-23T01:42:56.298Z,6.40
2023-01-23T01:43:56.320Z,6.50
2023-01-23T01:44:56.281Z,7.20
2023-01-23T01:45:56.278Z,7.30
2023-01-23T01:46:56.644Z,7.30
2023-01-23T01:47:56.268Z,5.90
2023-01-23T01:48:56.241Z,5.80
2023-01-23T01:49:56.241Z,7.00
2023-01-23T01:50:56.205Z,7.30
2023-01-23T01:51:56.218Z,7.30
2023-01-23T01:52:56.178Z,6.00
2023-01-23T01:53:56.207Z,6.90
2023-01-23T01:54:56.172Z,7.20
2023-01-23T01:55:56.238Z,6.40
2023-01-23T01:56:56.170Z,6.50
2023-01-23T01:57:56.142Z,6.20
2023-01-23T01:58:56.223Z,6.60
2023-01-23T01:59:56.125Z,5.70
2023-01-23T02:00:56.212Z,7.00
2023-01-23T02:01:56.183Z,5.80
2023-01-23T02:02:56.063Z,6.80
2023-01-23T02:03:56.105Z,6.30
2023-01-23T02:04:56.048Z,6.70
2023-01-23T02:05:56.055Z,6.80
2023-01-23T02:06:56.015Z,6.20
2023-01-23T02:07:56.061Z,6.80
2023-01-23T02:08:56.171Z,6.60
2023-01-23T02:09:56.029Z,6.90
2023-01-23T02:10:55.987Z,7.50
2023-01-23T02:11:56.011Z,6.90
2023-01-23T02:12:55.955Z,6.10
2023-01-23T02:13:55.992Z,6.60
2023-01-23T02:14:55.935Z,7.40
2023-01-23T02:15:55.979Z,6.70
2023-01-23T02:16:55.905Z,6.20
2023-01-23T02:17:55.915Z,7.00
2023-01-23T02:18:55.883Z,6.10
2023-01-23T02:19:55.898Z,8.10
2023-01-23T02:20:55.908Z,7.00
2023-01-23T02:21:55.890Z,5.40
2023-01-23T02:22:55.864Z,6.60
2023-01-23T02:23:55.883Z,7.10
2023-01-23T02:24:55.817Z,7.10
2023-01-23T02:25:55.836Z,7.50
2023-01-23T02:26:55.801Z,7.30
2023-01-23T02:27:55.823Z,6.80
2023-01-23T02:28:55.775Z,6.70
2023-01-23T02:29:55.795Z,6.10
2023-01-23T02:30:55.797Z,6.50
2023-01-23T02:31:55.837Z,7.10
2023-01-23T02:32:55.731Z,6.20
2023-01-23T02:33:55.773Z,6.00
2023-01-23T02:34:55.735Z,7.00
2023-01-23T02:35:55.723Z,6.40
2023-01-23T02:36:55.705Z,8.20
2023-01-23T02:37:55.701Z,8.20
2023-01-23T02:38:55.678Z,6.90
2023-01-23T02:39:55.677Z,7.40
2023-01-23T02:40:55.649Z,7.70
2023-01-23T02:41:55.681Z,7.20
2023-01-23T02:42:55.621Z,6.80
2023-01-23T02:43:55.659Z,7.00
2023-01-23T02:44:55.599Z,6.70
2023-01-23T02:45:55.638Z,8.70
2023-01-23T02:46:55.568Z,7.90
2023-01-23T02:47:55.608Z,7.20
2023-01-23T02:48:55.562Z,7.80
2023-01-23T02:49:55.570Z,7.30
2023-01-23T02:50:55.539Z,8.60
2023-01-23T02:51:55.576Z,8.00
2023-01-23T02:52:55.499Z,7.70
2023-01-23T02:53:55.530Z,7.10
2023-01-23T02:54:55.481Z,8.20
2023-01-23T02:55:55.508Z,7.60
2023-01-23T02:56:55.458Z,8.20
2023-01-23T02:57:55.469Z,7.80
2023-01-23T02:58:55.445Z,7.60
2023-01-23T02:59:55.466Z,8.50
2023-01-23T03:00:55.444Z,7.10
2023-01-23T03:01:55.467Z,8.50
2023-01-23T03:02:55.406Z,8.60
2023-01-23T03:03:55.410Z,7.70
2023-01-23T03:04:55.400Z,7.90
2023-01-23T03:05:55.401Z,8.60
2023-01-23T03:06:55.356Z,8.30
2023-01-23T03:08:02.968Z,10.30
2023-01-23T03:08:55.327Z,9.40
2023-01-23T03:09:55.347Z,7.50
2023-01-23T03:10:55.307Z,8.20
2023-01-23T03:11:55.325Z,7.60
2023-01-23T03:12:55.296Z,8.10
2023-01-23T03:13:55.329Z,7.60
2023-01-23T03:14:55.256Z,8.10
2023-01-23T03:15:55.454Z,10.20
2023-01-23T03:16:55.259Z,7.70
2023-01-23T03:17:55.255Z,8.20
2023-01-23T03:18:55.278Z,8.40
2023-01-23T03:19:55.217Z,9.60
2023-01-23T03:20:55.268Z,8.00
2023-01-23T03:21:55.196Z,8.90
2023-01-23T03:22:55.364Z,8.20
2023-01-23T03:23:55.184Z,6.70
2023-01-23T03:24:55.184Z,7.50
2023-01-23T03:25:55.146Z,7.80
2023-01-23T03:26:55.164Z,7.50
2023-01-23T03:27:55.157Z,7.30
2023-01-23T03:28:55.150Z,8.30
2023-01-23T03:29:55.109Z,7.40
2023-01-23T03:30:55.184Z,7.70
2023-01-23T03:31:55.895Z,8.20
2023-01-23T03:32:55.093Z,8.60
2023-01-23T03:33:55.073Z,9.20
2023-01-23T03:34:55.064Z,8.30
2023-01-23T03:35:55.635Z,8.10
2023-01-23T03:36:55.035Z,7.60
2023-01-23T03:37:55.070Z,7.50
2023-01-23T03:38:55.013Z,8.00
2023-01-23T03:39:54.992Z,9.80
2023-01-23T03:40:55.069Z,8.80
2023-01-23T03:41:54.971Z,7.80
2023-01-23T03:42:55.000Z,8.40
2023-01-23T03:43:54.953Z,8.60
2023-01-23T03:44:54.951Z,8.70
2023-01-23T03:45:54.982Z,8.90
2023-01-23T03:46:54.924Z,8.50
2023-01-23T03:47:55.035Z,8.70
2023-01-23T03:48:54.922Z,8.10
2023-01-23T03:49:54.890Z,8.70
2023-01-23T03:50:54.912Z,7.70
2023-01-23T03:51:54.895Z,7.80
2023-01-23T03:52:54.864Z,6.80
2023-01-23T03:53:54.883Z,8.20
2023-01-23T03:54:54.841Z,7.80
2023-01-23T03:55:54.821Z,8.30
2023-01-23T03:56:54.833Z,8.00
2023-01-23T03:57:54.777Z,8.50
2023-01-23T03:58:54.802Z,8.00
2023-01-23T03:59:54.759Z,8.40
2023-01-23T04:00:54.796Z,8.20
2023-01-23T04:01:54.733Z,9.50
2023-01-23T04:02:54.782Z,8.50
2023-01-23T04:03:54.706Z,8.20
2023-01-23T04:04:54.722Z,8.10
2023-01-23T04:05:54.747Z,7.40
2023-01-23T04:06:54.689Z,7.70
2023-01-23T04:07:54.675Z,7.90
2023-01-23T04:08:54.703Z,8.50
2023-01-23T04:09:54.646Z,8.60
2023-01-23T04:10:54.737Z,9.10
2023-01-23T04:11:54.658Z,9.10
2023-01-23T04:12:55.179Z,7.60
2023-01-23T04:13:54.613Z,9.40
2023-01-23T04:14:54.610Z,11.70
2023-01-23T04:15:54.689Z,7.50
2023-01-23T04:16:54.653Z,8.50
2023-01-23T04:17:54.559Z,9.00
2023-01-23T04:18:54.576Z,9.50
2023-01-23T04:19:54.550Z,8.70
2023-01-23T04:20:54.537Z,8.90
2023-01-23T04:21:54.520Z,9.60
2023-01-23T04:22:54.559Z,9.10
2023-01-23T04:23:54.507Z,9.00
2023-01-23T04:24:54.539Z,9.20
2023-01-23T04:25:54.481Z,10.10
2023-01-23T04:26:54.501Z,8.20
2023-01-23T04:27:54.448Z,9.00
2023-01-23T04:28:54.701Z,9.20
2023-01-23T04:29:54.441Z,9.50
2023-01-23T04:30:54.523Z,9.40
2023-01-23T04:31:54.423Z,9.60
2023-01-23T04:32:54.631Z,8.50
2023-01-23T04:33:54.421Z,10.00
2023-01-23T04:34:54.421Z,8.30
2023-01-23T04:35:54.354Z,9.40
2023-01-23T04:36:54.428Z,9.70
2023-01-23T04:37:54.337Z,10.20
2023-01-23T04:38:54.356Z,10.70
2023-01-23T04:39:54.307Z,9.60
2023-01-23T04:40:54.382Z,10.00
2023-01-23T04:41:54.285Z,9.60
2023-01-23T04:42:54.318Z,9.80
2023-01-23T04:43:54.284Z,9.00
2023-01-23T04:44:54.337Z,9.00
2023-01-23T04:45:54.301Z,9.00
2023-01-23T04:46:54.278Z,10.20
2023-01-23T04:47:54.225Z,9.30
2023-01-23T04:48:54.234Z,10.50
2023-01-23T04:49:54.215Z,10.40
2023-01-23T04:50:54.248Z,9.00
2023-01-23T04:51:54.173Z,9.20
2023-01-23T04:52:54.188Z,10.10
2023-01-23T04:53:54.467Z,11.30
2023-01-23T04:54:54.187Z,10.90
2023-01-23T04:55:54.170Z,10.70
2023-01-23T04:56:54.144Z,9.60
2023-01-23T04:57:54.196Z,10.40
2023-01-23T04:58:54.120Z,9.80
2023-01-23T04:59:54.096Z,10.80
2023-01-23T05:00:54.115Z,12.10
2023-01-23T05:01:54.290Z,12.00
2023-01-23T05:02:54.085Z,9.50
2023-01-23T05:03:54.053Z,10.70
2023-01-23T05:04:54.053Z,10.10
2023-01-23T05:05:54.035Z,10.40
2023-01-23T05:06:54.037Z,11.30
2023-01-23T05:07:54.040Z,10.40
2023-01-23T05:08:54.003Z,11.00
2023-01-23T05:09:54.026Z,10.30
2023-01-23T05:10:53.989Z,10.60
2023-01-23T05:11:53.958Z,9.60
2023-01-23T05:12:54.149Z,10.10
2023-01-23T05:13:53.932Z,10.40
2023-01-23T05:14:54.003Z,11.40
2023-01-23T05:15:53.932Z,11.40
2023-01-23T05:16:53.909Z,10.40
2023-01-23T05:17:53.918Z,10.30
2023-01-23T05:18:53.891Z,10.70
2023-01-23T05:19:53.849Z,10.40
2023-01-23T05:20:53.928Z,10.50
2023-01-23T05:21:53.841Z,10.10
2023-01-23T05:22:53.879Z,10.00
2023-01-23T05:23:53.813Z,10.90
2023-01-23T05:24:53.887Z,10.60
2023-01-23T05:25:53.788Z,11.80
2023-01-23T05:26:53.803Z,10.30
2023-01-23T05:27:53.769Z,9.30
2023-01-23T05:28:53.787Z,10.30
2023-01-23T05:29:53.754Z,10.30
2023-01-23T05:30:53.898Z,10.70
2023-01-23T05:31:53.741Z,9.20
2023-01-23T05:32:53.725Z,10.30
2023-01-23T05:33:54.104Z,10.90
2023-01-23T05:34:54.089Z,10.80
2023-01-23T05:35:53.679Z,9.70
2023-01-23T05:36:53.851Z,10.20
2023-01-23T05:37:53.689Z,10.10
2023-01-23T05:38:53.657Z,10.70
2023-01-23T05:39:53.659Z,11.40
2023-01-23T05:40:53.641Z,11.80
2023-01-23T05:41:53.597Z,10.80
2023-01-23T05:42:53.610Z,10.20
2023-01-23T05:43:53.579Z,11.10
2023-01-23T05:44:53.607Z,12.00
2023-01-23T05:45:53.604Z,11.30
2023-01-23T05:46:53.595Z,11.10
2023-01-23T05:47:53.537Z,11.20
2023-01-23T05:48:53.552Z,11.60
2023-01-23T05:49:53.539Z,11.90
2023-01-23T05:50:53.661Z,12.60
2023-01-23T05:51:53.505Z,13.20
2023-01-23T05:52:53.529Z,10.50
2023-01-23T05:53:53.525Z,11.00
2023-01-23T05:54:53.707Z,13.30
2023-01-23T05:55:53.455Z,13.00
2023-01-23T05:56:53.518Z,10.90
2023-01-23T05:57:53.426Z,11.60
2023-01-23T05:58:53.459Z,11.30
2023-01-23T05:59:53.443Z,11.40
2023-01-23T06:00:53.415Z,12.00
2023-01-23T06:01:53.409Z,12.50
2023-01-23T06:02:53.446Z,11.60
2023-01-23T06:03:53.471Z,11.70
2023-01-23T06:04:55.716Z,12.80
2023-01-23T06:05:53.387Z,12.70
2023-01-23T06:06:53.359Z,11.60
2023-01-23T06:07:53.326Z,12.70
2023-01-23T06:08:53.327Z,12.70
2023-01-23T06:09:53.293Z,12.30
2023-01-23T06:10:53.380Z,13.10
2023-01-23T06:11:53.273Z,13.00
2023-01-23T06:12:53.292Z,12.10
2023-01-23T06:13:53.245Z,12.10
2023-01-23T06:14:53.474Z,11.90
2023-01-23T06:15:53.532Z,12.60
2023-01-23T06:16:53.239Z,12.20
2023-01-23T06:17:53.269Z,13.40
2023-01-23T06:18:53.267Z,12.10
2023-01-23T06:19:53.179Z,12.50
2023-01-23T06:20:53.202Z,12.00
2023-01-23T06:21:53.175Z,11.70
2023-01-23T06:22:54.023Z,11.80
2023-01-23T06:23:53.192Z,12.10
2023-01-23T06:24:53.141Z,11.70
2023-01-23T06:25:53.112Z,12.40
2023-01-23T06:26:53.127Z,12.30
2023-01-23T06:27:54.976Z,11.10
2023-01-23T06:28:53.152Z,11.20
2023-01-23T06:29:55.077Z,11.50
2023-01-23T06:30:54.162Z,11.60
2023-01-23T06:31:53.136Z,11.60
2023-01-23T06:32:53.071Z,11.40
2023-01-23T06:33:53.109Z,10.80
2023-01-23T06:34:53.471Z,10.00
2023-01-23T06:35:53.002Z,10.80
2023-01-23T06:36:53.043Z,11.40
2023-01-23T06:37:52.999Z,11.20
2023-01-23T06:38:52.985Z,10.40
2023-01-23T06:39:53.004Z,9.40
2023-01-23T06:40:53.018Z,10.80
2023-01-23T06:41:52.947Z,11.10
2023-01-23T06:42:52.990Z,11.70
2023-01-23T06:43:52.907Z,10.50
2023-01-23T06:44:52.939Z,11.60
2023-01-23T06:45:52.909Z,9.60
2023-01-23T06:46:52.898Z,10.30
2023-01-23T06:47:52.900Z,9.30
2023-01-23T06:48:53.142Z,9.60
2023-01-23T06:49:52.840Z,9.00
2023-01-23T06:50:52.916Z,9.20
2023-01-23T06:51:52.875Z,8.30
2023-01-23T06:52:52.845Z,10.40
2023-01-23T06:53:52.811Z,9.00
2023-01-23T06:54:53.568Z,9.50
2023-01-23T06:55:53.746Z,8.70
2023-01-23T06:56:52.903Z,8.40
2023-01-23T06:57:52.781Z,9.30
2023-01-23T06:58:52.807Z,9.00
2023-01-23T06:59:52.735Z,7.80
2023-01-23T07:00:52.737Z,8.30
2023-01-23T07:01:52.762Z,8.60
2023-01-23T07:02:52.749Z,8.80
2023-01-23T07:03:52.947Z,8.40
2023-01-23T07:04:52.731Z,9.00
2023-01-23T07:05:52.678Z,8.00
2023-01-23T07:06:52.675Z,11.00
2023-01-23T07:07:52.656Z,9.20
2023-01-23T07:08:52.647Z,9.20
2023-01-23T07:09:52.647Z,8.60
2023-01-23T07:10:52.891Z,8.60
2023-01-23T07:11:52.597Z,7.10
2023-01-23T07:12:52.631Z,8.50
2023-01-23T07:13:52.576Z,8.50
2023-01-23T07:14:52.770Z,8.00
2023-01-23T07:15:52.614Z,9.20
2023-01-23T07:16:52.726Z,7.90
2023-01-23T07:17:52.525Z,8.00
2023-01-23T07:18:52.630Z,8.20
2023-01-23T07:19:52.571Z,9.60
2023-01-23T07:20:52.506Z,8.60
2023-01-23T07:21:52.659Z,9.10
2023-01-23T07:22:52.495Z,7.40
2023-01-23T07:23:52.554Z,8.80
2023-01-23T07:24:52.475Z,11.30
2023-01-23T07:25:52.476Z,13.60
2023-01-23T07:26:52.461Z,11.80
2023-01-23T07:27:52.406Z,11.10
2023-01-23T07:28:52.427Z,10.00
2023-01-23T07:29:52.442Z,10.30
2023-01-23T07:30:52.536Z,10.80
2023-01-23T07:31:52.989Z,10.40
2023-01-23T07:32:52.391Z,9.60
2023-01-23T07:33:52.354Z,9.90
2023-01-23T07:34:52.419Z,14.40
2023-01-23T07:35:52.355Z,10.30
2023-01-23T07:36:53.074Z,12.00
2023-01-23T07:37:52.334Z,9.20
2023-01-23T07:38:52.303Z,10.50
2023-01-23T07:39:52.376Z,9.90
2023-01-23T07:40:52.289Z,9.40
2023-01-23T07:41:52.394Z,9.60
2023-01-23T07:42:52.243Z,10.20
2023-01-23T07:43:52.260Z,9.90
2023-01-23T07:44:52.229Z,8.40
2023-01-23T07:45:52.273Z,11.60
2023-01-23T07:46:52.308Z,10.40
2023-01-23T07:47:52.213Z,10.50
2023-01-23T07:48:52.182Z,10.40
2023-01-23T07:49:52.368Z,10.20
2023-01-23T07:50:52.340Z,10.40
2023-01-23T07:51:53.127Z,10.60
2023-01-23T07:52:53.498Z,10.00
2023-01-23T07:53:52.150Z,11.10
2023-01-23T07:54:52.119Z,11.80
2023-01-23T07:55:52.128Z,10.90
2023-01-23T07:56:52.103Z,10.60
2023-01-23T07:57:52.119Z,12.00
2023-01-23T07:58:52.099Z,12.00
2023-01-23T07:59:52.076Z,11.60
2023-01-23T08:00:52.085Z,10.50
2023-01-23T08:01:52.054Z,11.00
2023-01-23T08:02:52.036Z,9.40
2023-01-23T08:03:52.122Z,9.90
2023-01-23T08:04:52.131Z,8.10
2023-01-23T08:05:52.034Z,9.40
2023-01-23T08:06:51.991Z,8.90
2023-01-23T08:08:00.735Z,8.00
2023-01-23T08:08:52.948Z,8.20
2023-01-23T08:09:51.967Z,8.90
2023-01-23T08:10:51.927Z,9.10
2023-01-23T08:11:51.948Z,9.80
2023-01-23T08:12:51.948Z,9.00
2023-01-23T08:13:51.919Z,9.10
2023-01-23T08:14:51.893Z,8.70
2023-01-23T08:15:51.903Z,9.50
2023-01-23T08:16:51.883Z,8.90
2023-01-23T08:17:51.882Z,10.20
2023-01-23T08:18:51.879Z,10.30
2023-01-23T08:19:52.215Z,6.40
2023-01-23T08:20:51.818Z,6.80
2023-01-23T08:21:51.833Z,7.80
2023-01-23T08:22:51.797Z,6.60
2023-01-23T08:23:51.824Z,6.70
2023-01-23T08:24:51.854Z,7.50
2023-01-23T08:25:51.813Z,6.30
2023-01-23T08:26:51.766Z,7.30
2023-01-23T08:27:51.775Z,6.70
2023-01-23T08:28:51.796Z,7.50
2023-01-23T08:29:51.751Z,7.00
2023-01-23T08:30:51.799Z,7.80
2023-01-23T08:31:51.852Z,8.40
2023-01-23T08:32:51.807Z,10.00
2023-01-23T08:33:51.714Z,8.40
2023-01-23T08:34:51.678Z,8.20
2023-01-23T08:35:51.714Z,8.90
2023-01-23T08:36:51.639Z,9.50
2023-01-23T08:37:51.646Z,10.00
2023-01-23T08:38:51.715Z,8.80
2023-01-23T08:39:51.615Z,8.60
2023-01-23T08:40:51.643Z,8.70
2023-01-23T08:41:52.076Z,7.90
2023-01-23T08:42:51.624Z,7.60
2023-01-23T08:43:51.577Z,7.80
2023-01-23T08:44:51.570Z,8.50
2023-01-23T08:45:51.627Z,7.40
2023-01-23T08:46:51.694Z,7.80
2023-01-23T08:47:51.660Z,8.30
2023-01-23T08:48:51.502Z,6.90
2023-01-23T08:49:51.518Z,7.40
2023-01-23T08:50:51.509Z,7.60
2023-01-23T08:51:51.520Z,6.90
2023-01-23T08:52:51.475Z,6.30
2023-01-23T08:53:51.472Z,6.50
2023-01-23T08:54:51.451Z,6.60
2023-01-23T08:55:51.443Z,6.50
2023-01-23T08:56:51.593Z,6.80
2023-01-23T08:57:51.522Z,7.20
2023-01-23T08:58:51.440Z,7.00
2023-01-23T08:59:51.393Z,8.00
2023-01-23T09:00:51.427Z,6.90
2023-01-23T09:01:51.384Z,8.70
2023-01-23T09:02:51.506Z,6.70
2023-01-23T09:03:51.350Z,6.70
2023-01-23T09:04:51.334Z,6.90
2023-01-23T09:05:51.368Z,6.50
2023-01-23T09:06:51.291Z,6.60
2023-01-23T09:07:51.328Z,6.00
2023-01-23T09:08:51.338Z,6.60
2023-01-23T09:09:51.346Z,6.50
2023-01-23T09:10:51.271Z,5.40
2023-01-23T09:11:51.298Z,5.20
2023-01-23T09:12:51.241Z,5.80
2023-01-23T09:13:53.971Z,6.50
2023-01-23T09:14:51.281Z,6.30
2023-01-23T09:15:51.220Z,6.60
2023-01-23T09:16:51.287Z,5.90
2023-01-23T09:17:51.225Z,5.60
2023-01-23T09:18:51.151Z,6.30
2023-01-23T09:19:51.200Z,6.40
2023-01-23T09:20:51.130Z,6.00
2023-01-23T09:21:58.746Z,6.00
2023-01-23T09:22:51.120Z,6.70
2023-01-23T09:23:51.129Z,7.20
2023-01-23T09:24:51.097Z,6.40
2023-01-23T09:25:51.107Z,6.40
2023-01-23T09:26:51.077Z,6.20
2023-01-23T09:27:51.088Z,6.40
2023-01-23T09:28:51.038Z,5.60
2023-01-23T09:29:51.201Z,4.60
2023-01-23T09:30:51.628Z,6.00
2023-01-23T09:31:51.079Z,5.10
2023-01-23T09:32:51.004Z,4.80
2023-01-23T09:33:51.021Z,4.90
2023-01-23T09:34:51.731Z,5.30
2023-01-23T09:35:51.003Z,5.30
2023-01-23T09:36:50.970Z,5.10
2023-01-23T09:37:51.184Z,4.10
2023-01-23T09:38:51.004Z,5.00
2023-01-23T09:39:50.953Z,5.70
2023-01-23T09:40:50.987Z,5.50
2023-01-23T09:41:50.991Z,4.10
2023-01-23T09:42:50.894Z,5.10
2023-01-23T09:43:50.905Z,4.30
2023-01-23T09:44:50.866Z,6.40
2023-01-23T09:45:50.908Z,4.70
2023-01-23T09:46:50.849Z,5.10
2023-01-23T09:47:53.196Z,5.00
2023-01-23T09:48:50.837Z,5.00
2023-01-23T09:49:50.869Z,4.70
2023-01-23T09:50:50.806Z,4.90
2023-01-23T09:51:50.826Z,4.70
2023-01-23T09:52:50.781Z,4.20
2023-01-23T09:53:50.810Z,4.60
2023-01-23T09:54:50.815Z,5.30
2023-01-23T09:55:50.860Z,5.20
2023-01-23T09:56:50.739Z,6.30
2023-01-23T09:57:50.753Z,5.80
2023-01-23T09:58:50.719Z,6.20
2023-01-23T10:00:00.442Z,6.60
2023-01-23T10:00:51.756Z,5.10
2023-01-23T10:01:50.711Z,5.30
2023-01-23T10:02:50.710Z,5.20
2023-01-23T10:03:51.240Z,4.90
2023-01-23T10:04:50.650Z,5.20
2023-01-23T10:05:50.668Z,6.00
2023-01-23T10:06:50.619Z,5.60
2023-01-23T10:07:50.651Z,4.20
2023-01-23T10:08:50.602Z,4.10
2023-01-23T10:09:50.618Z,4.60
2023-01-23T10:10:50.570Z,4.50
2023-01-23T10:11:50.597Z,6.90
2023-01-23T10:12:50.569Z,4.90
2023-01-23T10:13:50.586Z,4.40
2023-01-23T10:14:51.290Z,5.00
2023-01-23T10:15:52.177Z,4.70
2023-01-23T10:16:51.272Z,4.90
2023-01-23T10:17:50.520Z,5.00
2023-01-23T10:18:50.500Z,6.00
2023-01-23T10:19:51.232Z,4.90
2023-01-23T10:20:51.235Z,5.90
2023-01-23T10:21:50.491Z,6.40
2023-01-23T10:22:50.472Z,7.00
2023-01-23T10:23:50.470Z,6.60
2023-01-23T10:24:50.438Z,7.20
2023-01-23T10:25:50.441Z,5.90
2023-01-23T10:26:50.469Z,5.70
2023-01-23T10:27:50.414Z,5.30
2023-01-23T10:28:50.376Z,5.60
2023-01-23T10:29:50.401Z,6.70
2023-01-23T10:30:51.301Z,5.70
2023-01-23T10:31:50.456Z,5.30
2023-01-23T10:32:50.476Z,6.10
2023-01-23T10:33:50.338Z,5.50
2023-01-23T10:34:50.379Z,6.90
2023-01-23T10:35:51.300Z,6.40
2023-01-23T10:36:54.779Z,6.50
2023-01-23T10:37:50.319Z,5.40
2023-01-23T10:38:50.288Z,6.30
2023-01-23T10:39:50.287Z,6.60
2023-01-23T10:40:50.238Z,6.00
2023-01-23T10:41:54.271Z,6.00
2023-01-23T10:42:51.227Z,6.80
2023-01-23T10:43:50.239Z,6.20
2023-01-23T10:44:50.221Z,5.70
2023-01-23T10:45:50.337Z,7.20
2023-01-23T10:46:50.885Z,7.10
2023-01-23T10:47:55.181Z,7.20
2023-01-23T10:48:51.169Z,7.70
2023-01-23T10:49:50.170Z,8.10
2023-01-23T10:50:50.166Z,7.90
2023-01-23T10:51:50.315Z,6.80
2023-01-23T10:52:50.126Z,8.90
2023-01-23T10:53:50.170Z,7.70
2023-01-23T10:54:50.084Z,6.20
2023-01-23T10:55:50.114Z,6.10
2023-01-23T10:56:50.337Z,6.00
2023-01-23T10:57:50.077Z,5.70
2023-01-23T10:58:50.058Z,5.80
2023-01-23T10:59:50.070Z,4.90
2023-01-23T11:00:50.025Z,5.70
2023-01-23T11:01:57.292Z,5.70
2023-01-23T11:02:51.070Z,5.60
2023-01-23T11:03:50.042Z,5.40
2023-01-23T11:04:50.026Z,4.90
2023-01-23T11:05:53.133Z,5.60
2023-01-23T11:06:49.985Z,5.10
2023-01-23T11:07:49.979Z,5.90
2023-01-23T11:08:49.955Z,5.30
2023-01-23T11:09:49.958Z,6.50
2023-01-23T11:10:49.924Z,5.40
2023-01-23T11:11:49.935Z,7.30
2023-01-23T11:12:49.899Z,6.00
2023-01-23T11:13:49.928Z,5.90
2023-01-23T11:14:49.883Z,6.60
2023-01-23T11:15:49.921Z,5.70
2023-01-23T11:16:50.626Z,6.20
2023-01-23T11:17:49.899Z,5.70
2023-01-23T11:18:49.822Z,5.50
2023-01-23T11:19:49.845Z,6.80
2023-01-23T11:20:49.814Z,5.70
2023-01-23T11:21:49.813Z,5.60
2023-01-23T11:22:49.793Z,6.80
2023-01-23T11:23:49.809Z,5.20
2023-01-23T11:24:49.789Z,4.60
2023-01-23T11:25:49.830Z,5.30
2023-01-23T11:26:49.764Z,5.60
2023-01-23T11:27:49.751Z,5.10
2023-01-23T11:28:49.730Z,5.30
2023-01-23T11:29:50.065Z,5.50
2023-01-23T11:30:51.370Z,5.20
2023-01-23T11:31:49.829Z,5.90
2023-01-23T11:32:49.674Z,6.50
2023-01-23T11:33:49.698Z,5.70
2023-01-23T11:34:49.646Z,5.50
2023-01-23T11:35:49.667Z,6.60
2023-01-23T11:36:50.301Z,5.70
2023-01-23T11:37:49.642Z,6.40
2023-01-23T11:38:52.770Z,5.20
2023-01-23T11:39:49.649Z,5.80
2023-01-23T11:40:49.571Z,5.90
2023-01-23T11:41:49.610Z,6.70
2023-01-23T11:42:49.671Z,7.00
2023-01-23T11:43:49.575Z,5.90
2023-01-23T11:44:49.589Z,6.30
2023-01-23T11:45:49.581Z,6.10
2023-01-23T11:46:49.510Z,5.90
2023-01-23T11:47:49.535Z,6.50
2023-01-23T11:48:49.502Z,5.80
2023-01-23T11:49:51.358Z,5.50
2023-01-23T11:50:55.378Z,6.40
2023-01-23T11:51:50.454Z,6.00
2023-01-23T11:52:49.475Z,5.60
2023-01-23T11:53:49.469Z,5.90
2023-01-23T11:54:49.464Z,6.10
2023-01-23T11:55:49.399Z,6.40
2023-01-23T11:56:49.420Z,6.40
2023-01-23T11:57:49.394Z,6.70
2023-01-23T11:58:50.455Z,6.80
2023-01-23T11:59:49.357Z,5.80
2023-01-23T12:00:49.370Z,8.00
2023-01-23T12:02:02.072Z,6.80
2023-01-23T12:02:50.384Z,6.50
2023-01-23T12:03:49.344Z,6.20
2023-01-23T12:04:49.331Z,6.70
2023-01-23T12:05:49.303Z,6.60
2023-01-23T12:06:49.307Z,6.00
2023-01-23T12:07:49.271Z,7.10
2023-01-23T12:08:49.279Z,6.40
2023-01-23T12:09:49.260Z,7.00
2023-01-23T12:10:49.261Z,8.80
2023-01-23T12:11:49.229Z,8.60
2023-01-23T12:12:49.229Z,8.90
2023-01-23T12:13:49.203Z,6.50
2023-01-23T12:14:49.293Z,7.40
2023-01-23T12:15:49.228Z,6.70
2023-01-23T12:16:49.191Z,7.40
2023-01-23T12:17:49.178Z,6.30
2023-01-23T12:18:49.172Z,5.80
2023-01-23T12:19:49.955Z,6.20
2023-01-23T12:20:49.177Z,7.00
2023-01-23T12:21:49.118Z,6.50
2023-01-23T12:22:49.129Z,6.60
2023-01-23T12:23:49.105Z,6.50
2023-01-23T12:24:49.164Z,7.30
2023-01-23T12:25:49.096Z,6.50
2023-01-23T12:26:49.086Z,8.40
2023-01-23T12:27:49.040Z,6.00
2023-01-23T12:28:49.052Z,6.30
2023-01-23T12:29:49.026Z,6.40
2023-01-23T12:30:49.041Z,5.00
2023-01-23T12:31:49.079Z,6.10
2023-01-23T12:32:49.011Z,6.40
2023-01-23T12:33:48.967Z,6.40
2023-01-23T12:34:48.993Z,6.40
2023-01-23T12:35:48.957Z,5.90
2023-01-23T12:37:08.186Z,7.00
2023-01-23T12:37:49.916Z,7.20
2023-01-23T12:38:48.939Z,7.00
2023-01-23T12:39:48.907Z,7.40
2023-01-23T12:40:48.928Z,8.50
2023-01-23T12:41:48.874Z,6.70
2023-01-23T12:42:48.892Z,7.30
2023-01-23T12:43:48.925Z,7.30
2023-01-23T12:44:49.864Z,7.90
2023-01-23T12:45:48.835Z,7.20
2023-01-23T12:46:48.873Z,6.70
2023-01-23T12:47:48.815Z,7.10
2023-01-23T12:48:48.825Z,6.10
2023-01-23T12:49:48.820Z,7.70
2023-01-23T12:50:49.160Z,7.60
2023-01-23T12:51:48.763Z,9.20
2023-01-23T12:52:48.774Z,7.60
2023-01-23T12:53:48.792Z,9.20
2023-01-23T12:54:48.747Z,7.20
2023-01-23T12:55:48.725Z,8.70
2023-01-23T12:58:49.750Z,7.80
2023-01-23T12:59:48.673Z,7.60
2023-01-23T13:00:48.678Z,6.90
2023-01-23T13:01:48.774Z,7.40
2023-01-23T13:02:48.654Z,6.50
2023-01-23T13:03:48.629Z,6.20
2023-01-23T13:04:48.645Z,7.60
2023-01-23T13:05:48.616Z,7.60
2023-01-23T13:06:49.423Z,8.30
2023-01-23T13:07:48.603Z,7.40
2023-01-23T13:09:02.556Z,7.90
2023-01-23T13:09:49.553Z,8.20
2023-01-23T13:10:48.574Z,7.90
2023-01-23T13:11:48.546Z,8.40
2023-01-23T13:12:48.532Z,7.70
2023-01-23T13:13:48.515Z,8.20
2023-01-23T13:15:13.808Z,8.20
2023-01-23T13:15:49.744Z,7.60